Ann Arbor Township, Michigan
Current Conditions -  °F | °C
As of 4:53 PM on Friday 31 Oct 2014 (Local Time) from KARB Reporting Station
Light Rain Light Rain  
Wind Chill: 29°   Ceiling: 1700
Heat Index: 39°   Visibility: 10mi
Dew Point: 33°   Wind: 20mph
Humidity: 79%   Direction: 360°N
Pressure: 29.93"   Gusts: 32mph
Location:  42.3281°N, 83.7037°W
Report Text: KARB 312053Z 36017G28KT 10SM -RA BKN017 OVC023 04/01 A2993 RMK AO2 PK WND 02032/2020 RAB12 SLP140 P0001 60001 T00390006 53014
Loading
Personal Weather Stations






























Interactive Weather Map
Tropical Storm Tracking
New forecast layout! Learn more

10-Day Weather Forecast

Advertisements
Track Severe Weather on mobile